Fs Philippine — FMDU — position and weather

sailwx.info

Track history (hours):
 
Tides and Currents Weather Stations Pressure Air Temp Water Temp Dewpoint Dewpoint Depression Visibility Wind Speed Wind Dir Waves Ship Positions

Fs Philippine

Last reported at 2014-Aug-24 15:20 UTC. Time now 2014-Aug-27 21:16 UTC.
Position N 36°29' E 023°17'.

Length 139 m; draft 8 m.

Type: Ship (hazmat cat B). MMSI: 228320800.

Date/timePositionNaut miles runAvg speedWind from/ knotsBaromVisibWave heightAir tempDewpointWater temp
2014-Aug-24 15:20N 36°29' E 023°17'1312.6
2014-Aug-24 14:18N 36°40' E 023°25'2212.5
2014-Aug-24 12:33N 36°60' E 023°36'1313.2
2014-Aug-24 11:33N 37°13' E 023°39'1312.8
2014-Aug-24 10:33N 37°25' E 023°40'1212.3
2014-Aug-24 09:33N 37°37' E 023°43'1312.9
2014-Aug-24 08:33N 37°49' E 023°37'10 9.7
2014-Aug-24 07:33N 37°58' E 023°33'4 3.9
2014-Aug-24 06:32N 38°02' E 023°31'0 0.0
2014-Aug-24 05:29N 38°02' E 023°31'0 0.0
2014-Aug-24 03:29N 38°02' E 023°31'0 0.0
2014-Aug-24 02:20N 38°02' E 023°31'0 0.0
2014-Aug-24 01:32N 38°02' E 023°31'0 0.0
2014-Aug-24 00:08N 38°02' E 023°31'0 0.0
2014-Aug-23 23:14N 38°02' E 023°31'0 0.0
2014-Aug-23 22:29N 38°02' E 023°31'0 0.0
2014-Aug-23 21:32N 38°02' E 023°31'10 0.6
2014-Aug-23 03:33N 37°52' E 023°31'0 0.0
2014-Aug-23 02:33N 37°52' E 023°31'0 0.0
2014-Aug-23 01:33N 37°52' E 023°31'0 0.0
2014-Aug-23 00:33N 37°52' E 023°31'0 0.0
2014-Aug-22 23:33N 37°52' E 023°31'0 0.3
2014-Aug-22 22:33N 37°52' E 023°32'1110.8
2014-Aug-22 21:33N 37°45' E 023°43'1413.6
2014-Aug-22 20:33N 37°32' E 023°45'1514.6
2014-Aug-22 19:33N 37°18' E 023°41'1514.1
2014-Aug-22 18:32N 37°03' E 023°37'1414.1
2014-Aug-22 17:33N 36°50' E 023°33'1414.4
2014-Aug-22 16:33N 36°37' E 023°25'1414.1
2014-Aug-22 15:33N 36°25' E 023°17'  
2014-Aug-16 19:33N 35°52' E 015°06'1212.0
2014-Aug-16 18:33N 35°47' E 014°53'1312.6
2014-Aug-16 17:33N 35°48' E 014°37'4 3.4
2014-Aug-16 16:29N 35°49' E 014°33'0 0.0
2014-Aug-16 15:32N 35°49' E 014°33'0 0.0
2014-Aug-16 14:17N 35°49' E 014°33'0 0.0
2014-Aug-16 13:14N 35°49' E 014°33'0 0.0
2014-Aug-16 09:14N 35°49' E 014°33'0 0.0
2014-Aug-16 08:26N 35°49' E 014°33'0 0.0
2014-Aug-16 02:11N 35°49' E 014°33'0 0.0
2014-Aug-15 22:05N 35°49' E 014°33'0 0.0
2014-Aug-15 21:32N 35°49' E 014°33'0 0.0
2014-Aug-15 20:32N 35°49' E 014°33'0 0.0
2014-Aug-15 19:32N 35°49' E 014°33'0 0.0
2014-Aug-15 18:32N 35°49' E 014°33'0 0.0
2014-Aug-15 17:23N 35°49' E 014°33'0 0.0
2014-Aug-15 16:32N 35°49' E 014°33'0 0.0
2014-Aug-15 15:33N 35°49' E 014°33'1510.0
2014-Aug-15 14:05N 35°53' E 014°50'0 0.7
2014-Aug-15 13:33N 35°53' E 014°51'0 0.0
2014-Aug-15 12:31N 35°53' E 014°51'0 0.0
2014-Aug-15 10:31N 35°53' E 014°51'0 0.0
2014-Aug-15 09:31N 35°53' E 014°51'0 0.0
2014-Aug-15 08:31N 35°53' E 014°51'0 0.0
2014-Aug-15 07:22N 35°53' E 014°51'0 0.0
2014-Aug-15 06:31N 35°53' E 014°51'0 0.0
2014-Aug-15 05:31N 35°53' E 014°51'0 0.0
2014-Aug-15 04:31N 35°53' E 014°51'0 0.0
2014-Aug-15 03:31N 35°53' E 014°51'0 0.0
2014-Aug-15 02:31N 35°53' E 014°51'0 0.0
2014-Aug-15 01:31N 35°53' E 014°51'0 0.0
2014-Aug-15 00:31N 35°53' E 014°51'0 0.0
2014-Aug-14 23:31N 35°53' E 014°51'0 0.0
2014-Aug-14 22:31N 35°53' E 014°51'0 0.0
2014-Aug-14 21:31N 35°53' E 014°51'0 0.0
2014-Aug-14 20:31N 35°53' E 014°51'0 0.0
2014-Aug-14 19:31N 35°53' E 014°51'0 0.0
2014-Aug-14 18:31N 35°53' E 014°51'0 0.0
2014-Aug-14 17:31N 35°53' E 014°51'0 0.0
2014-Aug-14 16:31N 35°53' E 014°51'0 0.0
2014-Aug-14 15:28N 35°53' E 014°51'  
Track history (hours):
 
Tides and Currents Weather Stations Pressure Air Temp Water Temp Dewpoint Dewpoint Depression Visibility Wind Speed Wind Dir Waves Ship Positions

Fs Philippine

Last reported at 2014-Aug-24 15:20 UTC. Time now 2014-Aug-27 21:16 UTC.
Position N 36°29' E 023°17'.

Length 139 m; draft 8 m.

Type: Ship (hazmat cat B). MMSI: 228320800.

Date/timePositionNaut miles runAvg speedWind from/ knotsBaromVisibWave heightAir tempDewpointWater temp
2014-Aug-24 15:20N 36°29' E 023°17'1312.6
2014-Aug-24 14:18N 36°40' E 023°25'2212.5
2014-Aug-24 12:33N 36°60' E 023°36'1313.2
2014-Aug-24 11:33N 37°13' E 023°39'1312.8
2014-Aug-24 10:33N 37°25' E 023°40'1212.3
2014-Aug-24 09:33N 37°37' E 023°43'1312.9
2014-Aug-24 08:33N 37°49' E 023°37'10 9.7
2014-Aug-24 07:33N 37°58' E 023°33'4 3.9
2014-Aug-24 06:32N 38°02' E 023°31'0 0.0
2014-Aug-24 05:29N 38°02' E 023°31'0 0.0
2014-Aug-24 03:29N 38°02' E 023°31'0 0.0
2014-Aug-24 02:20N 38°02' E 023°31'0 0.0
2014-Aug-24 01:32N 38°02' E 023°31'0 0.0
2014-Aug-24 00:08N 38°02' E 023°31'0 0.0
2014-Aug-23 23:14N 38°02' E 023°31'0 0.0
2014-Aug-23 22:29N 38°02' E 023°31'0 0.0
2014-Aug-23 21:32N 38°02' E 023°31'10 0.6
2014-Aug-23 03:33N 37°52' E 023°31'0 0.0
2014-Aug-23 02:33N 37°52' E 023°31'0 0.0
2014-Aug-23 01:33N 37°52' E 023°31'0 0.0
2014-Aug-23 00:33N 37°52' E 023°31'0 0.0
2014-Aug-22 23:33N 37°52' E 023°31'0 0.3
2014-Aug-22 22:33N 37°52' E 023°32'1110.8
2014-Aug-22 21:33N 37°45' E 023°43'1413.6
2014-Aug-22 20:33N 37°32' E 023°45'1514.6
2014-Aug-22 19:33N 37°18' E 023°41'1514.1
2014-Aug-22 18:32N 37°03' E 023°37'1414.1
2014-Aug-22 17:33N 36°50' E 023°33'1414.4
2014-Aug-22 16:33N 36°37' E 023°25'1414.1
2014-Aug-22 15:33N 36°25' E 023°17'  
2014-Aug-16 19:33N 35°52' E 015°06'1212.0
2014-Aug-16 18:33N 35°47' E 014°53'1312.6
2014-Aug-16 17:33N 35°48' E 014°37'4 3.4
2014-Aug-16 16:29N 35°49' E 014°33'0 0.0
2014-Aug-16 15:32N 35°49' E 014°33'0 0.0
2014-Aug-16 14:17N 35°49' E 014°33'0 0.0
2014-Aug-16 13:14N 35°49' E 014°33'0 0.0
2014-Aug-16 09:14N 35°49' E 014°33'0 0.0
2014-Aug-16 08:26N 35°49' E 014°33'0 0.0
2014-Aug-16 02:11N 35°49' E 014°33'0 0.0
2014-Aug-15 22:05N 35°49' E 014°33'0 0.0
2014-Aug-15 21:32N 35°49' E 014°33'0 0.0
2014-Aug-15 20:32N 35°49' E 014°33'0 0.0
2014-Aug-15 19:32N 35°49' E 014°33'0 0.0
2014-Aug-15 18:32N 35°49' E 014°33'0 0.0
2014-Aug-15 17:23N 35°49' E 014°33'0 0.0
2014-Aug-15 16:32N 35°49' E 014°33'0 0.0
2014-Aug-15 15:33N 35°49' E 014°33'1510.0
2014-Aug-15 14:05N 35°53' E 014°50'0 0.7
2014-Aug-15 13:33N 35°53' E 014°51'0 0.0
2014-Aug-15 12:31N 35°53' E 014°51'0 0.0
2014-Aug-15 10:31N 35°53' E 014°51'0 0.0
2014-Aug-15 09:31N 35°53' E 014°51'0 0.0
2014-Aug-15 08:31N 35°53' E 014°51'0 0.0
2014-Aug-15 07:22N 35°53' E 014°51'0 0.0
2014-Aug-15 06:31N 35°53' E 014°51'0 0.0
2014-Aug-15 05:31N 35°53' E 014°51'0 0.0
2014-Aug-15 04:31N 35°53' E 014°51'0 0.0
2014-Aug-15 03:31N 35°53' E 014°51'0 0.0
2014-Aug-15 02:31N 35°53' E 014°51'0 0.0
2014-Aug-15 01:31N 35°53' E 014°51'0 0.0
2014-Aug-15 00:31N 35°53' E 014°51'0 0.0
2014-Aug-14 23:31N 35°53' E 014°51'0 0.0
2014-Aug-14 22:31N 35°53' E 014°51'0 0.0
2014-Aug-14 21:31N 35°53' E 014°51'0 0.0
2014-Aug-14 20:31N 35°53' E 014°51'0 0.0
2014-Aug-14 19:31N 35°53' E 014°51'0 0.0
2014-Aug-14 18:31N 35°53' E 014°51'0 0.0
2014-Aug-14 17:31N 35°53' E 014°51'0 0.0
2014-Aug-14 16:31N 35°53' E 014°51'0 0.0
2014-Aug-14 15:28N 35°53' E 014°51'  

Dump ship's entire track history